• Join FlightAware (Why Join?)
  • Login
  • US Flag 
08:43AM EDT


 

Airport Tracker/Info


-or-


 

Live Flight TrackerFlight Track Log ✈ WBR2627 ✈ 28-Apr-2013 ✈ KORD - KBRL

Flight Track Log - Related Links

Times and Time Zones

All times are in EDT time to prevent confusion due to time zone crossing. See the WBR2627 flight status page for this flight to view local times or setup timezone preferences in your user account.

Time Position Orientation Groundspeed Altitude Reporting Facility
EDT Latitude Longitude Course Direction KTS MPH feet Rate Location/Type
03:02PM 41.9333 -87.9333 270° West 100 115 2,100  Level Chicago TRACON
03:03PM 41.9167 -87.9500 217° Southwest 98 113 3,000 900 Climbing Chicago TRACON
03:04PM 41.8833 -87.9833 217° Southwest 119 137 3,900 840 Climbing Chicago TRACON
03:05PM 41.8667 -88.0167 236° Southwest 121 139 4,700 780 Climbing Chicago TRACON
03:06PM 41.8533 -88.0306 218° Southwest 115 132 5,100 720 Climbing Chicago Center
03:07PM 41.8300 -88.0647 228° Southwest 120 138 5,800 420 Climbing Chicago Center
03:08PM 41.9667 -88.2436 270° West  Level FlightAware Approximate
03:08PM 41.8114 -88.1125 242° Southwest 132 152 6,000  Level Chicago Center
03:09PM 41.7958 -88.1703 250° West 150 173 5,900 -60 Descending Chicago Center
03:10PM 41.7806 -88.2419 254° West 162 186 5,900  Level Chicago Center
03:11PM 41.7822 -88.3044 272° West 167 192 5,900  Level Chicago Center
03:12PM 41.7833 -88.3703 271° West 167 192 6,000 300 Climbing Chicago Center
03:13PM 41.7842 -88.4211 271° West 158 182 6,600 480 Climbing Chicago Center
03:14PM 41.7858 -88.4750 272° West 148 170 7,100 540 Climbing Chicago Center
03:15PM 41.7872 -88.5400 272° West 147 169 7,800 420 Climbing Chicago Center
03:16PM 41.7867 -88.5964 269° West 152 175 8,000 120 Climbing Chicago Center
03:17PM 41.7856 -88.6589 269° West 165 190 8,100  Climbing Chicago Center
03:18PM 41.7872 -88.7167 272° West 159 183 8,000 -60 Descending Chicago Center
03:19PM 41.7886 -88.7731 272° West 153 176 8,000  Level Chicago Center
03:20PM 41.7686 -88.8336 246° West 153 176 8,000  Level Chicago Center
03:21PM 41.7461 -88.8839 239° Southwest 156 180 8,000  Level Chicago Center
03:22PM 41.7258 -88.9347 242° Southwest 156 180 8,000  Level Chicago Center
03:23PM 41.7047 -88.9844 240° Southwest 156 180 8,000  Level Chicago Center
03:24PM 41.6836 -89.0353 241° Southwest 156 180 8,000  Level Chicago Center
03:26PM 41.6586 -89.0936 240° Southwest 154 177 8,000  Level Chicago Center
03:27PM 41.6381 -89.1444 242° Southwest 155 178 8,000  Level Chicago Center
03:28PM 41.6203 -89.1981 246° West 159 183 8,000  Level Chicago Center
03:29PM 41.6078 -89.2531 253° West 158 182 8,000  Level Chicago Center
03:30PM 41.5936 -89.3069 251° West 157 181 8,000  Level Chicago Center
03:31PM 41.5781 -89.3725 252° West 156 180 8,000  Level Chicago Center
03:32PM 41.5650 -89.4264 252° West 155 178 8,000  Level Chicago Center
03:33PM 41.5503 -89.4811 250° West 155 178 8,000  Level Chicago Center
03:34PM 41.5356 -89.5342 250° West 155 178 8,100  Climbing Chicago Center
03:35PM 41.5158 -89.5844 242° Southwest 152 175 8,100  Level Chicago Center
03:36PM 41.4928 -89.6314 237° Southwest 152 175 8,100  Level Chicago Center
03:37PM 41.4656 -89.6892 238° Southwest 153 176 8,100  Level Chicago Center
03:38PM 41.4428 -89.7367 237° Southwest 153 176 8,100  Level Chicago Center
03:39PM 41.4214 -89.7844 239° Southwest 151 174 8,100  Level Chicago Center
03:40PM 41.3972 -89.8322 236° Southwest 154 177 8,100  Level Chicago Center
03:41PM 41.3753 -89.8800 239° Southwest 153 176 8,100  Level Chicago Center
03:42PM 41.3531 -89.9269 238° Southwest 151 174 8,100  Level Chicago Center
03:43PM 41.3275 -89.9831 239° Southwest 148 170 8,100 -60 Level Chicago Center
03:44PM 41.3050 -90.0292 237° Southwest 149 171 8,000  Descending Chicago Center
03:45PM 41.2836 -90.0761 239° Southwest 148 170 8,100  Climbing Chicago Center
03:46PM 41.2600 -90.1236 237° Southwest 153 176 8,100  Level Chicago Center
03:47PM 41.2375 -90.1706 237° Southwest 152 175 8,100  Level Chicago Center
03:48PM 41.2150 -90.2183 238° Southwest 153 176 8,100  Level Chicago Center
03:49PM 41.1869 -90.2775 238° Southwest 155 178 8,100  Level Chicago Center
03:50PM 41.1644 -90.3256 238° Southwest 156 180 8,100  Level Chicago Center
03:51PM 41.1431 -90.3733 239° Southwest 154 177 8,100  Level Chicago Center
03:52PM 41.1214 -90.4219 239° Southwest 153 176 8,100  Level Chicago Center
03:53PM 41.0981 -90.4703 237° Southwest 155 178 8,100  Level Chicago Center
03:54PM 41.0789 -90.5203 243° Southwest 154 177 8,100  Level Chicago Center
03:56PM 41.0528 -90.5769 239° Southwest 151 174 8,100 -60 Level Chicago Center
03:57PM 41.0278 -90.6247 235° Southwest 156 180 8,000 -300 Descending Chicago Center
03:58PM 41.0042 -90.6722 237° Southwest 155 178 7,600 -480 Descending Chicago Center
03:59PM 40.9775 -90.7228 235° Southwest 161 185 7,100 -600 Descending Chicago Center
04:00PM 40.9547 -90.7722 239° Southwest 161 185 6,400 -780 Descending Chicago Center
04:01PM 40.9272 -90.8322 239° Southwest 160 184 5,600 -660 Descending Chicago Center
04:02PM 40.9050 -90.8803 239° Southwest 157 181 5,100 -540 Descending Chicago Center
04:03PM 40.8858 -90.9272 242° Southwest 152 175 4,500 -720 Descending Chicago Center
04:04PM 40.8786 -90.9783 259° West 146 168 3,700 -720 Descending Chicago Center
04:05PM 40.8686 -91.0283 255° West 143 165 3,100 -540 Descending Chicago Center
04:06PM 40.8547 -91.0806 251° West 145 167 2,600 -540 Descending Chicago Center
04:08PM 40.7890 -91.1219 217° Southwest  Level Estimated